Time;durP1;ratioP1;P1;durP2;ratioP2;P2;SDS_P1;SDS_P2;PMS_P1;PMS_P2;Temp;Humidity;BMP_temperature;BMP_pressure;BME280_temperature;BME280_humidity;BME280_pressure;Samples;Min_cycle;Max_cycle;Signal;HPM_P1;HPM_P2
2023/06/08 00:01:39;;;;;;;6.57;5.97;;;;;;;20.93;56.82;98961.38;7263869;40;21431;31
2023/06/08 00:07:14;;;;;;;6.80;5.60;;;;;;;20.76;57.44;98960.41;7254916;40;21225;31
2023/06/08 00:12:31;;;;;;;8.10;5.20;;;;;;;20.72;56.98;98956.50;7278667;40;21266;31
2023/06/08 00:18:07;;;;;;;6.28;5.18;;;;;;;20.69;57.90;98957.81;7273251;40;21287;31
2023/06/08 00:23:49;;;;;;;5.80;5.20;;;;;;;20.73;57.86;98944.47;7257552;40;20430;31
2023/06/08 00:34:26;;;;;;;5.72;5.20;;;;;;;20.53;58.45;98949.47;7214225;40;20258;31
2023/06/08 00:40:01;;;;;;;6.30;5.57;;;;;;;20.59;57.61;98943.88;6989996;40;20269;31
2023/06/08 00:45:33;;;;;;;6.57;5.87;;;;;;;20.42;57.96;98944.81;7209154;40;21310;31
2023/06/08 00:51:06;;;;;;;6.05;5.45;;;;;;;20.35;59.05;98931.25;7188151;40;21321;31
2023/06/08 00:56:38;;;;;;;6.10;5.50;;;;;;;20.39;58.66;98934.34;7185513;40;20277;31
2023/06/08 01:02:10;;;;;;;7.05;5.50;;;;;;;20.45;58.74;98939.69;7176609;40;21212;31
2023/06/08 01:07:48;;;;;;;6.05;5.40;;;;;;;20.32;59.21;98944.53;7206739;40;21345;31
2023/06/08 01:13:25;;;;;;;5.90;5.40;;;;;;;20.19;59.52;98948.28;7188345;40;21262;31
2023/06/08 01:24:12;;;;;;;8.77;6.00;;;;;;;19.90;61.10;98944.53;7235247;40;20258;31
2023/06/08 01:29:48;;;;;;;6.60;5.90;;;;;;;19.87;60.29;98945.00;7253752;40;21511;31
2023/06/08 01:35:20;;;;;;;6.30;5.70;;;;;;;19.89;60.78;98950.22;7263704;40;21289;31
2023/06/08 01:40:54;;;;;;;7.50;6.30;;;;;;;19.64;60.41;98939.44;7277212;40;21287;31
2023/06/08 01:46:26;;;;;;;6.75;6.15;;;;;;;19.54;60.65;98941.87;7269700;39;21261;31
2023/06/08 01:51:58;;;;;;;6.70;6.00;;;;;;;19.34;62.06;98939.38;7275216;40;21183;31
2023/06/08 01:57:31;;;;;;;6.60;5.95;;;;;;;19.28;62.39;98940.28;7277019;40;21228;31
2023/06/08 02:02:51;;;;;;;7.30;6.60;;;;;;;19.20;62.70;98935.97;7242206;40;21220;31
2023/06/08 02:08:24;;;;;;;9.10;6.50;;;;;;;19.26;61.63;98934.22;7253796;40;20382;31
2023/06/08 02:13:58;;;;;;;8.10;6.63;;;;;;;19.18;62.80;98937.25;7253280;40;20343;31
2023/06/08 02:19:16;;;;;;;6.15;5.65;;;;;;;19.20;62.66;98948.78;7265353;40;21466;31
2023/06/08 02:24:33;;;;;;;7.20;6.50;;;;;;;19.12;62.53;98947.22;7290133;39;20268;31
2023/06/08 02:30:06;;;;;;;7.15;6.45;;;;;;;19.13;62.89;98945.31;7322659;39;20439;31
2023/06/08 02:35:39;;;;;;;6.70;6.10;;;;;;;19.15;61.98;98949.47;7273307;40;21279;31
2023/06/08 02:40:55;;;;;;;6.33;5.73;;;;;;;19.32;61.52;98938.75;7300755;39;21364;31
2023/06/08 02:46:28;;;;;;;7.20;6.50;;;;;;;19.09;62.75;98941.34;7312845;39;20271;31
2023/06/08 02:51:46;;;;;;;7.30;6.60;;;;;;;19.09;62.95;98935.88;7257376;40;20250;31
2023/06/08 02:57:07;;;;;;;8.00;7.30;;;;;;;18.96;63.79;98934.13;7245165;40;21265;31
2023/06/08 03:02:40;;;;;;;7.30;6.60;;;;;;;18.95;64.37;98931.66;7251142;40;21399;31
2023/06/08 03:08:13;;;;;;;10.60;6.57;;;;;;;18.83;64.51;98929.66;7257682;40;21380;31
2023/06/08 03:13:29;;;;;;;7.60;6.83;;;;;;;18.92;62.98;98932.91;7251553;39;21210;31
2023/06/08 03:19:03;;;;;;;7.30;6.30;;;;;;;19.00;63.04;98938.06;7317281;39;20258;31
2023/06/08 03:24:21;;;;;;;8.53;6.70;;;;;;;18.99;62.22;98936.44;7298067;39;21226;31
2023/06/08 03:29:38;;;;;;;7.10;6.43;;;;;;;18.83;63.78;98932.38;7304049;39;21483;31
2023/06/08 03:35:14;;;;;;;7.83;7.03;;;;;;;18.76;65.02;98931.63;7316222;39;21231;31
2023/06/08 03:40:34;;;;;;;7.15;6.50;;;;;;;18.77;64.11;98941.50;7258953;39;21260;31
2023/06/08 03:45:51;;;;;;;6.75;6.05;;;;;;;18.99;62.63;98938.31;7268590;39;21402;31
2023/06/08 03:51:22;;;;;;;7.60;6.80;;;;;;;18.74;64.20;98941.09;7211053;40;21276;31
2023/06/08 03:56:41;;;;;;;7.60;6.20;;;;;;;18.57;64.22;98946.28;7219155;40;21264;31
2023/06/08 04:01:57;;;;;;;7.07;6.37;;;;;;;18.46;64.35;98942.37;7299984;39;21319;31
2023/06/08 04:07:29;;;;;;;8.23;7.07;;;;;;;18.38;65.00;98944.56;7311518;39;20266;31
2023/06/08 04:13:03;;;;;;;8.25;6.65;;;;;;;18.30;66.24;98944.81;7360109;39;20243;31
2023/06/08 04:18:21;;;;;;;8.93;7.00;;;;;;;18.33;65.23;98944.38;7246793;40;21432;31
2023/06/08 04:23:53;;;;;;;7.93;7.13;;;;;;;18.41;65.34;98935.91;7233892;40;21423;31
2023/06/08 04:29:25;;;;;;;8.63;7.20;;;;;;;18.36;65.95;98933.03;7212935;40;21290;31
2023/06/08 04:35:03;;;;;;;7.97;7.20;;;;;;;18.44;65.70;98949.94;7198581;40;21329;31
2023/06/08 04:40:34;;;;;;;10.57;7.53;;;;;;;18.49;65.34;98949.28;7237238;40;21239;31
2023/06/08 04:46:08;;;;;;;7.70;6.90;;;;;;;18.59;65.89;98949.66;7228196;40;21314;31
2023/06/08 04:51:46;;;;;;;8.98;7.40;;;;;;;18.68;65.88;98948.31;7253387;40;21348;31
2023/06/08 04:57:19;;;;;;;9.80;7.30;;;;;;;18.68;65.97;98942.84;7241763;40;21327;31
2023/06/08 05:02:51;;;;;;;9.53;6.80;;;;;;;18.90;65.87;98960.47;7216911;40;21308;31
2023/06/08 05:08:26;;;;;;;7.40;6.65;;;;;;;19.17;64.83;98969.22;7154505;40;20292;31
2023/06/08 05:14:03;;;;;;;8.47;7.20;;;;;;;19.25;64.71;98968.09;7152883;40;20302;31
2023/06/08 05:19:37;;;;;;;6.90;6.30;;;;;;;19.39;64.59;98986.00;7214610;40;21259;31
2023/06/08 05:25:09;;;;;;;7.37;6.50;;;;;;;19.67;63.62;98982.72;7196975;40;21318;31
2023/06/08 05:30:45;;;;;;;7.10;6.10;;;;;;;19.88;62.81;98986.87;7119972;40;21278;31
2023/06/08 05:36:15;;;;;;;8.27;6.80;;;;;;;20.09;63.09;98989.94;7206433;40;21275;31
2023/06/08 05:41:50;;;;;;;7.30;6.57;;;;;;;20.22;62.63;98989.75;7213434;40;21388;31
2023/06/08 05:47:24;;;;;;;7.97;6.43;;;;;;;20.37;61.62;98989.31;7178176;40;21234;31
2023/06/08 05:52:45;;;;;;;7.17;6.13;;;;;;;20.51;60.98;98999.00;7225109;40;21313;31
2023/06/08 05:58:02;;;;;;;7.90;6.72;;;;;;;20.53;61.75;98996.88;7247408;40;21217;31
2023/06/08 06:03:34;;;;;;;7.80;6.57;;;;;;;20.47;61.83;98988.75;7267632;39;20248;31
2023/06/08 06:08:52;;;;;;;7.70;6.47;;;;;;;20.72;62.46;98999.47;7248931;40;21223;31
2023/06/08 06:14:24;;;;;;;7.80;6.67;;;;;;;21.00;61.66;99008.69;7294852;39;21213;31
2023/06/08 06:19:55;;;;;;;9.23;6.63;;;;;;;20.87;61.94;99008.09;7236160;40;21280;31
2023/06/08 06:25:30;;;;;;;7.00;6.40;;;;;;;20.79;61.98;99008.44;7265722;40;21087;31
2023/06/08 06:30:47;;;;;;;7.65;6.90;;;;;;;20.82;62.40;99027.13;7277496;40;20245;31
2023/06/08 06:36:21;;;;;;;7.50;6.10;;;;;;;20.89;62.18;99028.69;7288028;39;20269;31
2023/06/08 06:41:56;;;;;;;7.95;6.45;;;;;;;20.94;61.53;99025.22;7338360;39;20330;31
2023/06/08 06:47:13;;;;;;;9.15;7.40;;;;;;;20.90;61.27;99026.78;7286836;39;20457;31
2023/06/08 06:52:43;;;;;;;10.23;7.30;;;;;;;20.86;62.17;99020.09;7297764;39;21228;31
2023/06/08 06:58:00;;;;;;;10.50;8.30;;;;;;;20.86;62.43;99015.47;7082130;40;20231;31
2023/06/08 07:03:16;;;;;;;7.90;7.07;;;;;;;20.88;61.77;99001.53;7277876;40;21193;31
2023/06/08 07:08:50;;;;;;;8.35;7.40;;;;;;;20.73;63.67;98992.94;7253254;40;21307;31
2023/06/08 07:14:10;;;;;;;7.72;6.95;;;;;;;20.79;63.17;98994.75;7226510;40;20281;31
2023/06/08 07:19:28;;;;;;;10.77;8.00;;;;;;;20.70;62.86;98980.56;7236187;40;21291;31
2023/06/08 07:25:02;;;;;;;8.60;7.80;;;;;;;20.38;65.42;98960.88;7204492;40;21268;31
2023/06/08 07:30:19;;;;;;;8.85;7.95;;;;;;;20.20;64.97;98936.28;7255112;40;21195;31
2023/06/08 07:35:37;;;;;;;9.03;8.13;;;;;;;20.07;66.15;98926.37;7260970;40;21313;31
2023/06/08 07:41:11;;;;;;;8.50;7.70;;;;;;;20.16;66.90;98956.97;7315964;39;21214;31
2023/06/08 07:46:28;;;;;;;8.90;8.00;;;;;;;20.12;66.47;98966.72;7271112;39;21167;31
2023/06/08 07:52:01;;;;;;;9.20;7.80;;;;;;;20.29;65.98;98967.72;7341107;39;21372;31
2023/06/08 07:57:32;;;;;;;9.25;8.10;;;;;;;20.53;65.35;98964.00;7279049;40;21220;31
2023/06/08 08:02:49;;;;;;;9.10;8.20;;;;;;;20.73;66.30;98949.09;7312880;39;20245;31
2023/06/08 08:08:07;;;;;;;9.30;8.40;;;;;;;20.82;65.45;98953.16;7307612;39;21218;31
2023/06/08 08:13:39;;;;;;;11.10;8.20;;;;;;;20.89;66.33;98942.91;7291199;40;21313;31
2023/06/08 08:18:56;;;;;;;8.90;8.00;;;;;;;21.12;64.40;98938.28;7304443;39;21255;31
2023/06/08 08:24:14;;;;;;;10.60;8.00;;;;;;;21.30;65.05;98950.16;7296414;39;21229;31
2023/06/08 08:29:46;;;;;;;10.10;7.90;;;;;;;21.52;63.00;98951.19;7294332;39;20289;31
2023/06/08 08:35:18;;;;;;;10.05;7.20;;;;;;;21.94;62.43;98951.75;7279329;39;21219;31
2023/06/08 08:46:00;;;;;;;8.38;7.60;;;;;;;22.19;61.10;98957.72;7268148;39;20275;31
2023/06/08 08:56:39;;;;;;;8.02;6.87;;;;;;;22.99;59.18;98953.84;7278055;39;21097;31
2023/06/08 09:02:15;;;;;;;8.05;7.10;;;;;;;23.61;57.86;98948.91;7337657;39;20259;31
2023/06/08 09:07:50;;;;;;;8.45;6.60;;;;;;;23.63;57.16;98952.22;7311055;39;20519;31
2023/06/08 09:13:33;;;;;;;7.05;6.35;;;;;;;23.63;57.43;98942.06;7340541;39;20255;31
2023/06/08 09:19:17;;;;;;;7.90;7.20;;;;;;;23.85;56.84;98943.94;7266984;39;20241;31
2023/06/08 09:24:52;;;;;;;7.40;6.70;;;;;;;24.22;56.41;98947.69;7306710;39;20321;31
2023/06/08 09:30:36;;;;;;;7.60;6.80;;;;;;;24.53;54.99;98951.50;7338573;39;20252;31
2023/06/08 09:36:20;;;;;;;8.85;6.60;;;;;;;24.40;54.55;98950.03;7336036;39;20436;31
2023/06/08 09:41:40;;;;;;;7.78;6.97;;;;;;;24.63;54.32;98952.44;7241413;40;20257;31
2023/06/08 09:47:16;;;;;;;7.75;6.20;;;;;;;24.92;53.11;98944.69;7259845;40;20252;31
2023/06/08 09:52:50;;;;;;;6.60;5.80;;;;;;;25.53;51.76;98947.78;7248589;40;20292;31
2023/06/08 09:58:25;;;;;;;6.45;5.85;;;;;;;25.70;51.24;98931.88;7249256;40;20253;31
2023/06/08 10:04:00;;;;;;;7.30;5.82;;;;;;;25.75;50.78;98929.13;7257741;40;20482;31
2023/06/08 10:09:36;;;;;;;6.85;5.55;;;;;;;26.08;49.02;98935.25;7219696;40;20296;31
2023/06/08 10:15:09;;;;;;;6.20;5.60;;;;;;;26.41;49.30;98924.56;7191538;40;20424;31
2023/06/08 10:20:44;;;;;;;6.40;5.60;;;;;;;26.59;48.21;98931.44;7216387;40;20241;31
2023/06/08 10:26:20;;;;;;;6.38;5.62;;;;;;;26.10;49.34;98928.38;7234078;40;20463;31
2023/06/08 10:31:55;;;;;;;6.10;5.37;;;;;;;26.43;47.96;98922.34;7216050;40;20316;31
2023/06/08 10:37:41;;;;;;;6.15;4.90;;;;;;;26.69;46.18;98914.03;7256840;40;20247;31
2023/06/08 10:43:16;;;;;;;7.50;5.43;;;;;;;26.99;46.29;98907.62;7237098;40;20276;31
2023/06/08 10:53:56;;;;;;;4.72;4.32;;;;;;;27.26;43.24;98899.81;7282719;39;21092;31
2023/06/08 10:59:29;;;;;;;6.18;4.72;;;;;;;27.50;42.32;98884.25;7265046;40;20350;31
2023/06/08 11:05:05;;;;;;;5.05;4.53;;;;;;;27.62;42.03;98878.38;7285559;39;20346;31
2023/06/08 11:10:40;;;;;;;5.00;4.50;;;;;;;27.75;40.72;98873.03;7259632;39;20273;31
2023/06/08 11:16:11;;;;;;;5.55;4.12;;;;;;;27.88;39.28;98862.41;7273210;40;20446;31
2023/06/08 11:21:46;;;;;;;5.90;4.20;;;;;;;27.89;37.92;98872.41;7287674;39;20280;31
2023/06/08 11:27:07;;;;;;;5.20;4.60;;;;;;;28.08;40.63;98860.31;7258620;40;20261;31
2023/06/08 11:32:55;;;;;;;4.64;4.24;;;;;;;28.22;39.16;98863.28;7265182;39;20442;31
2023/06/08 11:43:35;;;;;;;6.30;4.00;;;;;;;28.41;36.25;98855.09;7265764;39;21624;31
2023/06/08 11:54:16;;;;;;;4.43;3.70;;;;;;;28.77;35.05;98848.13;7329634;39;21064;31
2023/06/08 12:04:53;;;;;;;4.10;3.70;;;;;;;28.73;34.82;98829.59;7360924;39;20286;31
2023/06/08 12:10:28;;;;;;;4.50;3.55;;;;;;;28.81;33.54;98828.94;7300168;39;20245;31
2023/06/08 12:16:04;;;;;;;4.90;3.80;;;;;;;28.94;34.62;98826.28;7286450;39;20296;31
2023/06/08 12:21:38;;;;;;;4.32;3.45;;;;;;;28.94;34.43;98822.69;7298701;39;20267;31
2023/06/08 12:27:14;;;;;;;4.40;3.70;;;;;;;29.22;34.04;98815.41;7258521;40;20277;31
2023/06/08 12:32:49;;;;;;;4.20;3.45;;;;;;;29.52;32.97;98806.69;7278787;39;20248;31
2023/06/08 12:38:24;;;;;;;5.05;3.90;;;;;;;29.58;33.60;98807.41;7258160;40;20388;31
2023/06/08 12:43:58;;;;;;;3.50;3.20;;;;;;;29.55;30.19;98806.91;7237416;40;20309;31
2023/06/08 12:49:19;;;;;;;3.50;3.20;;;;;;;29.61;31.17;98809.63;7217454;40;20452;31
2023/06/08 12:54:39;;;;;;;3.85;3.55;;;;;;;29.77;31.54;98797.13;7229909;40;20261;31
2023/06/08 13:00:17;;;;;;;4.38;3.10;;;;;;;29.92;29.41;98785.81;7256194;40;20427;31
2023/06/08 13:05:51;;;;;;;3.62;3.30;;;;;;;30.00;29.02;98790.69;7252235;40;20271;31
2023/06/08 13:11:27;;;;;;;3.90;3.40;;;;;;;29.98;29.87;98785.41;7238344;40;20331;31
2023/06/08 13:17:03;;;;;;;3.70;3.35;;;;;;;30.08;29.85;98781.66;7256053;40;20253;31
2023/06/08 13:22:35;;;;;;;3.70;3.30;;;;;;;30.18;29.10;98781.47;7080262;40;21251;31
2023/06/08 13:28:11;;;;;;;3.80;3.25;;;;;;;30.23;27.29;98777.78;7325538;39;20249;31
2023/06/08 13:33:46;;;;;;;3.75;3.45;;;;;;;30.15;27.74;98770.12;7329266;39;20347;31
2023/06/08 13:39:21;;;;;;;4.18;3.40;;;;;;;30.17;28.63;98777.03;7272481;39;20277;31
2023/06/08 13:44:56;;;;;;;3.92;3.45;;;;;;;30.22;25.96;98770.56;7223039;40;20290;31
2023/06/08 13:55:36;;;;;;;3.65;3.33;;;;;;;30.00;28.05;98760.09;7224920;40;20359;31
2023/06/08 14:00:56;;;;;;;6.05;3.85;;;;;;;30.16;30.89;98764.25;7290229;39;20260;31
2023/06/08 14:06:18;;;;;;;5.65;4.50;;;;;;;30.28;33.83;98764.59;7319426;39;20248;31
2023/06/08 14:11:53;;;;;;;5.07;3.83;;;;;;;30.24;33.86;98748.81;7243549;40;20439;31
2023/06/08 14:17:28;;;;;;;5.20;4.68;;;;;;;29.84;34.04;98747.56;7210901;40;20315;31
2023/06/08 14:28:08;;;;;;;8.70;4.50;;;;;;;29.73;35.87;98734.97;7236270;40;21165;31
2023/06/08 14:33:43;;;;;;;7.93;4.32;;;;;;;29.83;35.97;98738.41;7279724;40;20301;31
2023/06/08 14:39:03;;;;;;;5.35;3.90;;;;;;;29.82;34.44;98749.81;7271167;39;20250;31
2023/06/08 14:44:40;;;;;;;6.90;3.80;;;;;;;29.68;34.17;98738.63;7275380;40;20291;31
2023/06/08 14:49:56;;;;;;;5.10;4.05;;;;;;;29.83;33.87;98751.47;7290302;39;20252;31
2023/06/08 14:55:17;;;;;;;5.43;4.03;;;;;;;29.84;33.82;98753.13;7284463;39;20648;31
2023/06/08 15:00:48;;;;;;;5.65;3.53;;;;;;;29.34;33.18;98766.66;7294696;39;20281;31
2023/06/08 15:06:23;;;;;;;4.43;3.72;;;;;;;28.59;33.63;98769.22;7288043;39;20271;31
2023/06/08 15:11:58;;;;;;;4.10;3.50;;;;;;;28.01;34.41;98773.91;7279364;39;20242;31
2023/06/08 15:17:34;;;;;;;5.45;3.60;;;;;;;28.02;35.66;98769.22;7279178;40;20248;31
2023/06/08 15:22:54;;;;;;;5.60;3.65;;;;;;;28.18;35.60;98757.72;7233908;40;20347;31
2023/06/08 15:28:13;;;;;;;8.02;3.47;;;;;;;28.17;34.41;98780.19;7193566;40;20580;31
2023/06/08 15:33:48;;;;;;;7.32;3.50;;;;;;;27.87;35.40;98766.56;7258063;40;20425;31
2023/06/08 15:39:22;;;;;;;5.20;3.80;;;;;;;27.80;36.51;98758.59;7310313;39;20562;31
2023/06/08 15:44:57;;;;;;;6.24;3.48;;;;;;;27.85;36.34;98757.72;7265871;40;20718;31
2023/06/08 15:50:33;;;;;;;4.03;3.25;;;;;;;27.66;35.80;98750.09;7288671;39;20654;31
2023/06/08 15:56:08;;;;;;;3.68;3.26;;;;;;;27.46;37.49;98741.94;7265814;40;20782;31
2023/06/08 16:01:43;;;;;;;3.73;3.23;;;;;;;27.26;36.17;98744.81;7244622;40;20706;31
2023/06/08 16:07:17;;;;;;;4.46;3.04;;;;;;;27.29;37.16;98747.81;7267859;39;20801;31
2023/06/08 16:12:52;;;;;;;3.92;3.20;;;;;;;27.57;37.53;98742.69;7241946;40;20789;31
2023/06/08 16:18:27;;;;;;;3.00;2.70;;;;;;;27.56;36.37;98739.09;7236981;40;20247;31
2023/06/08 16:24:01;;;;;;;4.20;3.40;;;;;;;27.51;37.34;98739.16;7243346;40;20514;31
2023/06/08 16:29:36;;;;;;;3.82;3.03;;;;;;;27.54;36.70;98748.81;7208060;40;20253;31
2023/06/08 16:34:54;;;;;;;3.82;3.40;;;;;;;27.33;36.19;98743.41;7198771;40;20265;31
2023/06/08 16:40:31;;;;;;;3.58;3.28;;;;;;;27.20;36.48;98738.50;7166462;40;20261;31
2023/06/08 16:45:51;;;;;;;3.88;3.06;;;;;;;27.13;36.37;98746.28;7234131;39;20342;31
2023/06/08 16:51:12;;;;;;;6.12;3.37;;;;;;;27.00;36.79;98751.59;7301593;39;20243;31
2023/06/08 16:56:49;;;;;;;4.12;2.95;;;;;;;27.10;37.55;98763.44;7319719;39;20255;31
2023/06/08 17:02:10;;;;;;;3.47;2.72;;;;;;;27.17;36.00;98754.81;7246205;40;20278;31
2023/06/08 17:07:31;;;;;;;3.62;3.05;;;;;;;26.88;36.19;98761.06;7277527;40;20253;31
2023/06/08 17:13:08;;;;;;;2.97;2.73;;;;;;;26.70;36.83;98761.66;7250855;40;20299;31
2023/06/08 17:18:28;;;;;;;3.36;2.92;;;;;;;26.67;36.66;98750.34;7237793;40;20241;31
2023/06/08 17:23:46;;;;;;;5.00;2.75;;;;;;;26.60;37.05;98741.50;7224094;40;20249;31
2023/06/08 17:29:22;;;;;;;5.67;3.20;;;;;;;26.50;38.07;98750.66;7378766;39;20328;31
2023/06/08 17:34:44;;;;;;;7.43;2.97;;;;;;;26.48;37.96;98754.81;7311464;39;20248;31
2023/06/08 17:40:05;;;;;;;4.20;3.10;;;;;;;26.38;38.38;98759.25;7318367;39;20240;31
2023/06/08 17:45:41;;;;;;;4.75;2.95;;;;;;;26.27;38.82;98754.03;7298110;39;20472;31
2023/06/08 17:51:17;;;;;;;4.12;3.10;;;;;;;26.13;38.37;98761.19;7276704;40;20264;31
2023/06/08 17:56:38;;;;;;;3.70;2.80;;;;;;;26.16;39.00;98758.69;7263231;40;20257;31
2023/06/08 18:02:18;;;;;;;8.65;3.22;;;;;;;26.10;39.20;98743.25;7292002;39;20341;31
2023/06/08 18:07:48;;;;;;;3.10;2.80;;;;;;;25.99;38.65;98742.44;7327905;39;20248;31
2023/06/08 18:13:23;;;;;;;3.53;2.70;;;;;;;25.83;38.27;98724.22;7294808;40;20260;31
2023/06/08 18:18:57;;;;;;;3.40;3.05;;;;;;;25.85;38.68;98729.44;7267868;40;20246;31
2023/06/08 18:24:32;;;;;;;3.85;2.90;;;;;;;25.87;38.99;98735.53;7249808;40;20277;31
2023/06/08 18:30:07;;;;;;;4.48;3.18;;;;;;;25.76;38.64;98745.75;7215093;40;20407;31
2023/06/08 18:35:43;;;;;;;3.40;3.10;;;;;;;25.64;39.48;98752.66;7187119;40;20285;31
2023/06/08 18:41:04;;;;;;;3.20;2.90;;;;;;;25.51;38.22;98759.50;7195496;40;20265;31
2023/06/08 18:46:39;;;;;;;4.65;3.58;;;;;;;25.45;38.40;98760.63;7228007;40;20429;31
2023/06/08 18:52:14;;;;;;;3.33;3.03;;;;;;;25.36;38.56;98765.03;7258717;40;20252;31
2023/06/08 18:57:50;;;;;;;5.10;3.60;;;;;;;25.21;38.53;98776.84;7280647;39;20269;31
2023/06/08 19:03:25;;;;;;;4.97;3.40;;;;;;;24.92;39.18;98795.78;7281615;39;20392;31
2023/06/08 19:09:01;;;;;;;3.62;3.25;;;;;;;24.67;39.64;98788.16;7259261;39;20242;31
2023/06/08 19:14:38;;;;;;;3.90;3.60;;;;;;;24.59;39.31;98802.47;7281960;39;20257;31
2023/06/08 19:19:57;;;;;;;4.78;3.80;;;;;;;24.48;40.87;98811.78;7250605;40;20316;31
2023/06/08 19:25:33;;;;;;;5.77;3.80;;;;;;;24.35;41.57;98800.41;7227740;40;20265;31
2023/06/08 19:31:02;;;;;;;4.40;3.80;;;;;;;24.20;41.74;98815.72;7176791;40;21087;31
2023/06/08 19:36:37;;;;;;;5.48;3.94;;;;;;;24.24;41.92;98818.75;7238873;40;20426;31
2023/06/08 19:42:13;;;;;;;6.35;4.10;;;;;;;24.20;42.59;98812.13;7258643;39;20246;31
2023/06/08 19:47:34;;;;;;;4.18;3.78;;;;;;;24.17;42.18;98831.94;7047749;40;20237;31
2023/06/08 19:53:08;;;;;;;5.25;4.10;;;;;;;24.08;42.01;98834.31;7301322;39;20272;31
2023/06/08 19:58:46;;;;;;;4.70;4.30;;;;;;;23.82;44.14;98837.94;7271207;39;20283;31
2023/06/08 20:04:20;;;;;;;5.44;4.10;;;;;;;23.68;44.64;98847.72;7245856;40;20241;31
2023/06/08 20:09:55;;;;;;;5.47;4.40;;;;;;;23.52;45.87;98848.66;7216206;40;20246;31
2023/06/08 20:15:32;;;;;;;7.57;4.60;;;;;;;23.25;46.08;98857.66;7188669;40;20296;31
2023/06/08 20:21:07;;;;;;;6.60;4.47;;;;;;;23.26;46.12;98853.81;7161662;40;20308;31
2023/06/08 20:26:27;;;;;;;6.15;5.10;;;;;;;23.15;47.48;98849.28;7185122;40;20265;31
2023/06/08 20:32:04;;;;;;;6.32;4.20;;;;;;;23.05;46.83;98845.56;7218756;40;20443;31
2023/06/08 20:37:38;;;;;;;8.07;4.90;;;;;;;22.92;46.99;98847.63;7225210;40;20245;31
2023/06/08 20:43:13;;;;;;;5.53;4.53;;;;;;;22.84;48.09;98855.47;7260293;40;20260;31
2023/06/08 20:48:49;;;;;;;6.47;4.53;;;;;;;22.70;47.40;98863.25;7203634;40;20269;31
2023/06/08 20:59:13;;;;;;;8.52;5.00;;;;;;;22.30;49.01;98857.94;7242848;40;20261;31
2023/06/08 21:09:54;;;;;;;7.00;4.40;;;;;;;21.78;50.06;98859.22;7305345;39;20279;31
2023/06/08 21:20:33;;;;;;;6.95;4.80;;;;;;;21.67;49.94;98858.22;7297981;40;21237;31
2023/06/08 21:26:09;;;;;;;5.86;4.72;;;;;;;21.54;51.28;98859.31;7258105;40;20256;31
2023/06/08 21:31:45;;;;;;;5.87;4.70;;;;;;;21.37;51.38;98869.41;7224156;40;20262;31
2023/06/08 21:37:21;;;;;;;6.55;4.85;;;;;;;21.46;50.59;98872.59;7198225;40;20258;31
2023/06/08 21:42:57;;;;;;;5.93;4.55;;;;;;;21.56;49.65;98870.91;7159059;40;20251;31
2023/06/08 21:48:33;;;;;;;5.20;4.50;;;;;;;21.53;49.99;98876.88;7141963;40;20258;31
2023/06/08 21:54:08;;;;;;;6.05;4.97;;;;;;;21.46;50.49;98873.44;7216503;40;20256;31
2023/06/08 21:59:44;;;;;;;4.80;4.32;;;;;;;21.34;50.25;98872.66;7200164;40;20241;31
2023/06/08 22:05:19;;;;;;;4.40;4.00;;;;;;;21.22;50.54;98874.59;7232669;39;20258;31
2023/06/08 22:10:55;;;;;;;5.80;4.25;;;;;;;21.11;51.35;98879.00;7206982;40;20257;31
2023/06/08 22:16:36;;;;;;;5.00;4.50;;;;;;;20.94;50.31;98894.53;7209481;40;20261;31
2023/06/08 22:22:08;;;;;;;7.15;4.80;;;;;;;21.02;50.05;98883.19;7217143;40;20351;31
2023/06/08 22:27:45;;;;;;;6.33;4.17;;;;;;;20.83;51.05;98884.44;7226765;40;20276;31
2023/06/08 22:33:26;;;;;;;4.70;3.90;;;;;;;20.85;50.79;98886.91;7204949;40;20370;31
2023/06/08 22:38:57;;;;;;;6.07;4.27;;;;;;;20.90;50.63;98874.16;7296195;39;20385;31
2023/06/08 22:44:32;;;;;;;5.43;4.55;;;;;;;20.71;51.08;98880.87;7271876;39;20339;31
2023/06/08 22:50:08;;;;;;;5.45;4.40;;;;;;;20.69;50.64;98875.63;7268217;40;20268;31
2023/06/08 22:55:43;;;;;;;5.63;4.13;;;;;;;20.70;51.08;98879.22;7268390;40;20312;31
2023/06/08 23:01:19;;;;;;;5.14;4.22;;;;;;;20.66;51.84;98869.81;7288457;39;20234;31
2023/06/08 23:06:58;;;;;;;5.02;4.52;;;;;;;20.58;51.98;98876.47;7259545;40;20249;31
2023/06/08 23:12:33;;;;;;;5.40;4.85;;;;;;;20.47;51.23;98871.00;7254594;40;20292;31
2023/06/08 23:23:12;;;;;;;5.60;4.93;;;;;;;20.22;52.36;98854.78;7299915;39;20985;31
2023/06/08 23:33:52;;;;;;;9.55;5.25;;;;;;;20.12;52.92;98847.16;7345527;39;20272;31
2023/06/08 23:44:32;;;;;;;5.73;4.80;;;;;;;19.98;53.57;98831.19;7329869;39;20263;31
2023/06/08 23:49:50;;;;;;;5.60;5.10;;;;;;;19.99;52.37;98830.13;7238783;40;20258;31
